OKA426 ZJSY-ZGSZ
Flight info
| Callsign | OKA426 |
|---|---|
| Flight time | 1h 20m |
| Altitude | 33100 |
| Route | PORAP2Q PORAP W222 NUMKU/K0861S1040 W223 AGTEL/K0861S1070 W71 LH DCT GYA A599 POU W7 SAREX SAREX3 |
| Aircraft | B739/M-SDE2E3FGHIRWXY/LB1 |
Departure
| Time | 2026-04-26 14:40 |
|---|---|
| Airport | Sanya Phoenix International Airport (ZJSY) |
Arrival
| Time | 2026-04-26 16:00 |
|---|---|
| Airport | Shenzhen Bao'an International Airport (ZGSZ) |
| Time | Latitude | Longitude | Altitude | Speed | Heading |
|---|---|---|---|---|---|
| 2026-04-26 14:21 | 18.30817 | 109.40750 | 87 ft | 0 kts | 353° |
| 2026-04-26 14:27 | 18.30810 | 109.40751 | 83 ft | 2 kts | 353° |
| 2026-04-26 14:27 | 18.30790 | 109.40754 | 87 ft | 3 kts | 354° |
| 2026-04-26 14:28 | 18.30770 | 109.40756 | 87 ft | 3 kts | 352° |
| 2026-04-26 14:28 | 18.30750 | 109.40760 | 85 ft | 3 kts | 343° |
| 2026-04-26 14:28 | 18.30733 | 109.40768 | 87 ft | 3 kts | 316° |
| 2026-04-26 14:28 | 18.30726 | 109.40777 | 85 ft | 1 kts | 266° |
| 2026-04-26 14:29 | 18.30726 | 109.40780 | 85 ft | 1 kts | 263° |
| 2026-04-26 14:32 | 18.30726 | 109.40779 | 85 ft | 0 kts | 263° |
| 2026-04-26 14:32 | 18.30725 | 109.40767 | 85 ft | 9 kts | 264° |
| 2026-04-26 14:32 | 18.30716 | 109.40685 | 83 ft | 12 kts | 263° |
| 2026-04-26 14:33 | 18.30704 | 109.40597 | 88 ft | 12 kts | 262° |
| 2026-04-26 14:33 | 18.30693 | 109.40511 | 83 ft | 12 kts | 262° |
| 2026-04-26 14:33 | 18.30680 | 109.40413 | 83 ft | 15 kts | 262° |
| 2026-04-26 14:33 | 18.30665 | 109.40291 | 85 ft | 18 kts | 262° |
| 2026-04-26 14:34 | 18.30648 | 109.40234 | 85 ft | 4 kts | 224° |
| 2026-04-26 14:34 | 18.30616 | 109.40232 | 87 ft | 6 kts | 175° |
| 2026-04-26 14:34 | 18.30560 | 109.40238 | 85 ft | 10 kts | 172° |
| 2026-04-26 14:34 | 18.30480 | 109.40249 | 86 ft | 13 kts | 172° |
| 2026-04-26 14:35 | 18.30404 | 109.40213 | 85 ft | 15 kts | 258° |
| 2026-04-26 14:35 | 18.30389 | 109.40093 | 83 ft | 18 kts | 262° |
| 2026-04-26 14:35 | 18.30372 | 109.39953 | 87 ft | 21 kts | 262° |
| 2026-04-26 14:35 | 18.30351 | 109.39793 | 83 ft | 23 kts | 262° |
| 2026-04-26 14:36 | 18.30328 | 109.39616 | 87 ft | 25 kts | 262° |
| 2026-04-26 14:36 | 18.30316 | 109.39524 | 83 ft | 0 kts | 262° |
| 2026-04-26 14:36 | 18.30315 | 109.39521 | 88 ft | 1 kts | 262° |
| 2026-04-26 14:36 | 18.30313 | 109.39503 | 86 ft | 4 kts | 262° |
| 2026-04-26 14:37 | 18.30307 | 109.39461 | 83 ft | 8 kts | 262° |
| 2026-04-26 14:37 | 18.30304 | 109.39430 | 85 ft | 1 kts | 269° |
| 2026-04-26 14:37 | 18.30312 | 109.39423 | 85 ft | 2 kts | 338° |
| 2026-04-26 14:37 | 18.30323 | 109.39430 | 87 ft | 2 kts | 47° |
| 2026-04-26 14:38 | 18.30323 | 109.39450 | 88 ft | 5 kts | 110° |
| 2026-04-26 14:38 | 18.30312 | 109.39502 | 83 ft | 9 kts | 79° |
| 2026-04-26 14:38 | 18.30322 | 109.39576 | 84 ft | 11 kts | 90° |
| 2026-04-26 14:38 | 18.30263 | 109.39622 | 86 ft | 12 kts | 172° |
| 2026-04-26 14:39 | 18.30177 | 109.39634 | 85 ft | 12 kts | 172° |
| 2026-04-26 14:39 | 18.30100 | 109.39660 | 85 ft | 12 kts | 123° |
| 2026-04-26 14:39 | 18.30094 | 109.39717 | 86 ft | 0 kts | 84° |
| 2026-04-26 14:39 | 18.30095 | 109.39728 | 86 ft | 11 kts | 83° |
| 2026-04-26 14:40 | 18.30129 | 109.39987 | 87 ft | 73 kts | 83° |
| 2026-04-26 14:40 | 18.30236 | 109.40802 | 82 ft | 149 kts | 82° |
| 2026-04-26 14:40 | 18.30399 | 109.42087 | 204 ft | 199 kts | 84° |
| 2026-04-26 14:40 | 18.30529 | 109.43586 | 936 ft | 213 kts | 86° |
| 2026-04-26 14:41 | 18.30685 | 109.45136 | 1850 ft | 205 kts | 81° |
| 2026-04-26 14:41 | 18.30923 | 109.46622 | 2504 ft | 214 kts | 82° |
| 2026-04-26 14:41 | 18.31166 | 109.48268 | 2844 ft | 236 kts | 82° |
| 2026-04-26 14:41 | 18.31297 | 109.49986 | 3622 ft | 238 kts | 101° |
| 2026-04-26 14:42 | 18.30549 | 109.51516 | 4358 ft | 240 kts | 135° |
| 2026-04-26 14:42 | 18.29133 | 109.52443 | 5117 ft | 243 kts | 162° |
| 2026-04-26 14:42 | 18.27445 | 109.52622 | 5842 ft | 249 kts | 188° |
| 2026-04-26 14:42 | 18.25859 | 109.51951 | 6654 ft | 248 kts | 217° |
| 2026-04-26 14:43 | 18.24762 | 109.50538 | 7276 ft | 256 kts | 246° |
| 2026-04-26 14:43 | 18.24483 | 109.48691 | 7977 ft | 261 kts | 276° |
| 2026-04-26 14:43 | 18.25042 | 109.46867 | 8715 ft | 265 kts | 296° |
| 2026-04-26 14:43 | 18.25988 | 109.45158 | 9468 ft | 268 kts | 300° |
| 2026-04-26 14:44 | 18.26968 | 109.43502 | 10145 ft | 272 kts | 301° |
| 2026-04-26 14:44 | 18.28242 | 109.42021 | 10767 ft | 278 kts | 326° |
| 2026-04-26 14:44 | 18.30067 | 109.41283 | 11447 ft | 282 kts | 353° |
| 2026-04-26 14:44 | 18.32048 | 109.41504 | 11821 ft | 300 kts | 21° |
| 2026-04-26 14:45 | 18.33797 | 109.42810 | 11991 ft | 321 kts | 47° |
| 2026-04-26 14:45 | 18.34798 | 109.43996 | 12124 ft | 335 kts | 49° |
| 2026-04-26 14:45 | 18.36879 | 109.46614 | 12309 ft | 362 kts | 50° |
| 2026-04-26 14:45 | 18.38535 | 109.48696 | 12440 ft | 380 kts | 50° |
| 2026-04-26 14:46 | 18.40278 | 109.50851 | 12695 ft | 392 kts | 49° |
| 2026-04-26 14:46 | 18.42076 | 109.53042 | 13103 ft | 398 kts | 49° |
| 2026-04-26 14:46 | 18.43901 | 109.55245 | 13650 ft | 400 kts | 49° |
| 2026-04-26 14:46 | 18.45740 | 109.57460 | 14120 ft | 403 kts | 48° |
| 2026-04-26 14:47 | 18.47594 | 109.59691 | 14552 ft | 406 kts | 48° |
| 2026-04-26 14:47 | 18.49662 | 109.61720 | 14910 ft | 410 kts | 31° |
| 2026-04-26 14:47 | 18.52212 | 109.63044 | 15460 ft | 407 kts | 22° |
| 2026-04-26 14:47 | 18.54809 | 109.64239 | 15950 ft | 409 kts | 22° |
| 2026-04-26 14:48 | 18.57431 | 109.65455 | 16300 ft | 414 kts | 22° |
| 2026-04-26 14:48 | 18.60071 | 109.66695 | 16706 ft | 417 kts | 22° |
| 2026-04-26 14:48 | 18.62722 | 109.67955 | 17149 ft | 419 kts | 22° |
| 2026-04-26 14:48 | 18.65386 | 109.69229 | 17577 ft | 421 kts | 22° |
| 2026-04-26 14:49 | 18.68054 | 109.70510 | 18007 ft | 423 kts | 22° |
| 2026-04-26 14:49 | 18.70741 | 109.71801 | 18378 ft | 425 kts | 22° |
| 2026-04-26 14:49 | 18.73445 | 109.73099 | 18672 ft | 428 kts | 22° |
| 2026-04-26 14:49 | 18.76159 | 109.74401 | 19018 ft | 430 kts | 22° |
| 2026-04-26 14:50 | 18.78894 | 109.75713 | 19331 ft | 433 kts | 22° |
| 2026-04-26 14:50 | 18.81635 | 109.77027 | 19695 ft | 434 kts | 22° |
| 2026-04-26 14:50 | 18.84391 | 109.78349 | 20060 ft | 435 kts | 21° |
| 2026-04-26 14:50 | 18.87155 | 109.79675 | 20364 ft | 438 kts | 21° |
| 2026-04-26 14:51 | 18.89935 | 109.81010 | 20659 ft | 441 kts | 21° |
| 2026-04-26 14:51 | 18.92731 | 109.82353 | 20973 ft | 443 kts | 21° |
| 2026-04-26 14:51 | 18.95541 | 109.83703 | 21288 ft | 445 kts | 21° |
| 2026-04-26 14:51 | 18.98364 | 109.85061 | 21586 ft | 447 kts | 21° |
| 2026-04-26 14:52 | 19.01198 | 109.86425 | 21882 ft | 449 kts | 21° |
| 2026-04-26 14:52 | 19.04050 | 109.87798 | 22148 ft | 451 kts | 21° |
| 2026-04-26 14:52 | 19.06913 | 109.89176 | 22422 ft | 453 kts | 21° |
| 2026-04-26 14:52 | 19.09792 | 109.90562 | 22687 ft | 456 kts | 21° |
| 2026-04-26 14:53 | 19.12683 | 109.91955 | 22938 ft | 458 kts | 21° |
| 2026-04-26 14:53 | 19.15588 | 109.93356 | 23192 ft | 460 kts | 21° |
| 2026-04-26 14:53 | 19.18504 | 109.94763 | 23492 ft | 461 kts | 21° |
| 2026-04-26 14:53 | 19.21428 | 109.96174 | 23702 ft | 463 kts | 21° |
| 2026-04-26 14:54 | 19.24361 | 109.97589 | 23905 ft | 464 kts | 21° |
| 2026-04-26 14:54 | 19.27316 | 109.98982 | 24104 ft | 466 kts | 20° |
| 2026-04-26 14:54 | 19.30300 | 110.00332 | 24317 ft | 467 kts | 19° |
| 2026-04-26 14:54 | 19.33288 | 110.01679 | 24535 ft | 468 kts | 20° |
| 2026-04-26 14:55 | 19.36308 | 110.03102 | 24740 ft | 470 kts | 21° |
| 2026-04-26 14:55 | 19.39283 | 110.04544 | 24939 ft | 471 kts | 21° |
| 2026-04-26 14:55 | 19.42266 | 110.06004 | 25143 ft | 473 kts | 21° |
| 2026-04-26 14:55 | 19.45254 | 110.07467 | 25339 ft | 474 kts | 21° |
| 2026-04-26 14:56 | 19.48262 | 110.08934 | 25499 ft | 476 kts | 21° |
| 2026-04-26 14:56 | 19.51275 | 110.10399 | 25711 ft | 477 kts | 21° |
| 2026-04-26 14:56 | 19.54293 | 110.11863 | 25923 ft | 478 kts | 21° |
| 2026-04-26 14:56 | 19.57317 | 110.13327 | 26107 ft | 479 kts | 21° |
| 2026-04-26 14:57 | 19.60356 | 110.14798 | 26272 ft | 480 kts | 21° |
| 2026-04-26 14:57 | 19.63402 | 110.16272 | 26442 ft | 482 kts | 21° |
| 2026-04-26 14:57 | 19.66452 | 110.17750 | 26607 ft | 483 kts | 22° |
| 2026-04-26 14:57 | 19.69513 | 110.19234 | 26787 ft | 484 kts | 22° |
| 2026-04-26 14:58 | 19.72581 | 110.20722 | 26950 ft | 485 kts | 22° |
| 2026-04-26 14:58 | 19.75653 | 110.22213 | 27109 ft | 487 kts | 22° |
| 2026-04-26 14:58 | 19.78741 | 110.23713 | 27263 ft | 488 kts | 22° |
| 2026-04-26 14:58 | 19.81834 | 110.25215 | 27420 ft | 489 kts | 22° |
| 2026-04-26 14:59 | 19.84932 | 110.26720 | 27572 ft | 490 kts | 22° |
| 2026-04-26 14:59 | 19.88036 | 110.28230 | 27725 ft | 492 kts | 22° |
| 2026-04-26 14:59 | 19.91148 | 110.29744 | 27872 ft | 493 kts | 22° |
| 2026-04-26 14:59 | 19.93212 | 110.30748 | 27986 ft | 493 kts | 22° |
| 2026-04-26 15:00 | 19.97382 | 110.32779 | 28303 ft | 492 kts | 22° |
| 2026-04-26 15:00 | 20.00489 | 110.34292 | 28577 ft | 491 kts | 22° |
| 2026-04-26 15:00 | 20.03593 | 110.35792 | 28813 ft | 490 kts | 20° |
| 2026-04-26 15:00 | 20.06827 | 110.36882 | 28959 ft | 487 kts | 8° |
| 2026-04-26 15:01 | 20.10171 | 110.37311 | 29217 ft | 482 kts | 359° |
| 2026-04-26 15:01 | 20.13494 | 110.37153 | 29514 ft | 476 kts | 348° |
| 2026-04-26 15:01 | 20.16732 | 110.36492 | 29825 ft | 473 kts | 345° |
| 2026-04-26 15:01 | 20.19948 | 110.35760 | 30077 ft | 473 kts | 345° |
| 2026-04-26 15:02 | 20.23168 | 110.35024 | 30283 ft | 473 kts | 345° |
| 2026-04-26 15:02 | 20.26383 | 110.34307 | 30560 ft | 471 kts | 345° |
| 2026-04-26 15:02 | 20.29588 | 110.33613 | 30899 ft | 469 kts | 345° |
| 2026-04-26 15:02 | 20.32779 | 110.32936 | 31271 ft | 466 kts | 345° |
| 2026-04-26 15:03 | 20.35946 | 110.32270 | 31639 ft | 463 kts | 345° |
| 2026-04-26 15:03 | 20.39096 | 110.31607 | 31991 ft | 460 kts | 345° |
| 2026-04-26 15:03 | 20.42231 | 110.30945 | 32325 ft | 459 kts | 344° |
| 2026-04-26 15:03 | 20.45357 | 110.30284 | 32647 ft | 458 kts | 344° |
| 2026-04-26 15:04 | 20.48479 | 110.29643 | 33003 ft | 457 kts | 346° |
| 2026-04-26 15:04 | 20.54897 | 110.29488 | 33115 ft | 465 kts | 359° |
| 2026-04-26 15:05 | 20.61350 | 110.30003 | 33056 ft | 464 kts | 359° |
| 2026-04-26 15:05 | 20.67785 | 110.30489 | 33056 ft | 463 kts | 359° |
| 2026-04-26 15:06 | 20.74209 | 110.30929 | 33058 ft | 462 kts | 358° |
| 2026-04-26 15:06 | 20.80652 | 110.31357 | 33063 ft | 466 kts | 358° |
| 2026-04-26 15:07 | 20.90373 | 110.32011 | 33048 ft | 465 kts | 358° |
| 2026-04-26 15:07 | 20.96825 | 110.32447 | 33062 ft | 464 kts | 358° |
| 2026-04-26 15:08 | 21.03282 | 110.32825 | 33060 ft | 465 kts | 357° |
| 2026-04-26 15:08 | 21.09788 | 110.33197 | 33018 ft | 470 kts | 4° |
| 2026-04-26 15:09 | 21.12956 | 110.34154 | 33074 ft | 477 kts | 19° |
| 2026-04-26 15:09 | 21.15885 | 110.35886 | 32992 ft | 488 kts | 33° |
| 2026-04-26 15:09 | 21.18394 | 110.38354 | 33152 ft | 491 kts | 41° |
| 2026-04-26 15:09 | 21.20774 | 110.40997 | 33067 ft | 496 kts | 42° |
| 2026-04-26 15:10 | 21.24738 | 110.45454 | 33069 ft | 498 kts | 42° |
| 2026-04-26 15:10 | 21.30370 | 110.51713 | 33066 ft | 499 kts | 42° |
| 2026-04-26 15:11 | 21.35217 | 110.57036 | 33063 ft | 498 kts | 42° |
| 2026-04-26 15:11 | 21.40054 | 110.62332 | 33055 ft | 496 kts | 42° |
| 2026-04-26 15:12 | 21.44866 | 110.67606 | 33053 ft | 493 kts | 42° |
| 2026-04-26 15:12 | 21.48841 | 110.71968 | 33057 ft | 491 kts | 42° |
| 2026-04-26 15:13 | 21.53601 | 110.77199 | 33056 ft | 489 kts | 42° |
| 2026-04-26 15:13 | 21.58346 | 110.82418 | 33066 ft | 489 kts | 42° |
| 2026-04-26 15:14 | 21.63152 | 110.87708 | 33066 ft | 492 kts | 42° |
| 2026-04-26 15:14 | 21.67948 | 110.92993 | 33072 ft | 495 kts | 42° |
| 2026-04-26 15:15 | 21.72720 | 110.98260 | 33068 ft | 495 kts | 42° |
| 2026-04-26 15:15 | 21.77559 | 111.03605 | 33067 ft | 495 kts | 42° |
| 2026-04-26 15:16 | 21.82346 | 111.08899 | 33068 ft | 492 kts | 42° |
| 2026-04-26 15:16 | 21.87088 | 111.14149 | 33064 ft | 487 kts | 43° |
| 2026-04-26 15:17 | 21.91004 | 111.18489 | 33079 ft | 485 kts | 43° |
| 2026-04-26 15:17 | 21.96495 | 111.24575 | 33072 ft | 484 kts | 43° |
| 2026-04-26 15:18 | 22.01182 | 111.29778 | 33090 ft | 484 kts | 43° |
| 2026-04-26 15:18 | 22.05883 | 111.35001 | 33096 ft | 486 kts | 43° |
| 2026-04-26 15:19 | 22.10597 | 111.40244 | 33086 ft | 488 kts | 43° |
| 2026-04-26 15:19 | 22.15329 | 111.45513 | 33087 ft | 491 kts | 43° |
| 2026-04-26 15:20 | 22.20087 | 111.50818 | 33080 ft | 493 kts | 43° |
| 2026-04-26 15:20 | 22.24852 | 111.56135 | 33100 ft | 493 kts | 43° |
| 2026-04-26 15:21 | 22.29625 | 111.61467 | 33099 ft | 493 kts | 43° |
| 2026-04-26 15:21 | 22.34393 | 111.66800 | 33094 ft | 493 kts | 43° |
| 2026-04-26 15:22 | 22.39155 | 111.72131 | 33092 ft | 492 kts | 43° |
| 2026-04-26 15:22 | 22.43907 | 111.77455 | 33083 ft | 491 kts | 43° |
| 2026-04-26 15:23 | 22.48646 | 111.82771 | 33082 ft | 490 kts | 43° |
| 2026-04-26 15:23 | 22.53373 | 111.88080 | 33075 ft | 490 kts | 43° |
| 2026-04-26 15:24 | 22.58097 | 111.93390 | 33074 ft | 489 kts | 43° |
| 2026-04-26 15:24 | 22.62843 | 111.98730 | 33076 ft | 489 kts | 43° |
| 2026-04-26 15:25 | 22.66762 | 112.03144 | 33071 ft | 489 kts | 43° |
| 2026-04-26 15:25 | 22.72241 | 112.09321 | 33064 ft | 490 kts | 43° |
| 2026-04-26 15:26 | 22.76957 | 112.14644 | 33087 ft | 490 kts | 43° |
| 2026-04-26 15:26 | 22.81675 | 112.19977 | 33087 ft | 490 kts | 43° |
| 2026-04-26 15:27 | 22.86397 | 112.25320 | 33079 ft | 491 kts | 43° |
| 2026-04-26 15:27 | 22.91153 | 112.30706 | 33071 ft | 491 kts | 43° |
| 2026-04-26 15:28 | 22.95879 | 112.36065 | 33058 ft | 492 kts | 43° |
| 2026-04-26 15:28 | 23.00603 | 112.41428 | 33070 ft | 491 kts | 43° |
| 2026-04-26 15:29 | 23.02980 | 112.44129 | 32381 ft | 501 kts | 44° |
| 2026-04-26 15:29 | 23.05053 | 112.47213 | 31499 ft | 509 kts | 61° |
| 2026-04-26 15:29 | 23.06794 | 112.54571 | 30079 ft | 506 kts | 92° |
| 2026-04-26 15:30 | 23.06219 | 112.62093 | 28709 ft | 497 kts | 96° |
| 2026-04-26 15:30 | 23.05912 | 112.65784 | 28110 ft | 490 kts | 96° |
| 2026-04-26 15:30 | 23.05627 | 112.69460 | 27542 ft | 484 kts | 96° |
| 2026-04-26 15:31 | 23.05364 | 112.73085 | 26835 ft | 482 kts | 95° |
| 2026-04-26 15:31 | 23.04875 | 112.80255 | 25667 ft | 473 kts | 95° |
| 2026-04-26 15:31 | 23.04637 | 112.83791 | 25192 ft | 466 kts | 95° |
| 2026-04-26 15:32 | 23.04245 | 112.89587 | 24120 ft | 463 kts | 96° |
| 2026-04-26 15:32 | 23.03927 | 112.94225 | 23229 ft | 461 kts | 96° |
| 2026-04-26 15:32 | 23.03689 | 112.97670 | 22656 ft | 454 kts | 96° |
| 2026-04-26 15:33 | 23.03453 | 113.01077 | 22021 ft | 451 kts | 96° |
| 2026-04-26 15:33 | 23.03219 | 113.04444 | 21465 ft | 445 kts | 96° |
| 2026-04-26 15:33 | 23.02989 | 113.07755 | 21248 ft | 432 kts | 96° |
| 2026-04-26 15:33 | 23.02763 | 113.11001 | 20293 ft | 438 kts | 96° |
| 2026-04-26 15:34 | 23.02531 | 113.14297 | 19797 ft | 433 kts | 95° |
| 2026-04-26 15:34 | 23.02199 | 113.17470 | 19567 ft | 417 kts | 102° |
| 2026-04-26 15:34 | 23.01423 | 113.20541 | 18761 ft | 421 kts | 112° |
| 2026-04-26 15:34 | 23.00237 | 113.23405 | 18191 ft | 417 kts | 119° |
| 2026-04-26 15:35 | 22.98896 | 113.26165 | 17682 ft | 410 kts | 120° |
| 2026-04-26 15:35 | 22.97546 | 113.28886 | 17061 ft | 408 kts | 120° |
| 2026-04-26 15:35 | 22.96217 | 113.31587 | 16589 ft | 402 kts | 120° |
| 2026-04-26 15:35 | 22.94936 | 113.34231 | 16402 ft | 388 kts | 120° |
| 2026-04-26 15:36 | 22.93677 | 113.36850 | 15490 ft | 396 kts | 120° |
| 2026-04-26 15:36 | 22.92422 | 113.39475 | 14969 ft | 392 kts | 120° |
| 2026-04-26 15:36 | 22.91171 | 113.42091 | 14480 ft | 388 kts | 120° |
| 2026-04-26 15:36 | 22.89854 | 113.44624 | 13917 ft | 383 kts | 129° |
| 2026-04-26 15:37 | 22.87938 | 113.46545 | 13487 ft | 371 kts | 151° |
| 2026-04-26 15:37 | 22.85652 | 113.47641 | 13314 ft | 352 kts | 165° |
| 2026-04-26 15:37 | 22.83198 | 113.48001 | 12256 ft | 362 kts | 182° |
| 2026-04-26 15:37 | 22.80724 | 113.47834 | 12098 ft | 348 kts | 185° |
| 2026-04-26 15:38 | 22.78322 | 113.47627 | 11387 ft | 351 kts | 185° |
| 2026-04-26 15:38 | 22.75906 | 113.47432 | 10993 ft | 345 kts | 184° |
| 2026-04-26 15:38 | 22.73534 | 113.47250 | 10841 ft | 332 kts | 184° |
| 2026-04-26 15:38 | 22.71268 | 113.47080 | 10704 ft | 320 kts | 184° |
| 2026-04-26 15:39 | 22.69091 | 113.46918 | 10602 ft | 307 kts | 184° |
| 2026-04-26 15:39 | 22.66992 | 113.46762 | 10460 ft | 298 kts | 184° |
| 2026-04-26 15:39 | 22.64970 | 113.46709 | 10341 ft | 287 kts | 172° |
| 2026-04-26 15:39 | 22.63711 | 113.47093 | 10235 ft | 282 kts | 155° |
| 2026-04-26 15:40 | 22.61771 | 113.48849 | 10110 ft | 270 kts | 126° |
| 2026-04-26 15:40 | 22.60851 | 113.50563 | 10026 ft | 260 kts | 107° |
| 2026-04-26 15:40 | 22.60684 | 113.52444 | 10088 ft | 244 kts | 93° |
| 2026-04-26 15:40 | 22.60653 | 113.54275 | 9947 ft | 243 kts | 93° |
| 2026-04-26 15:41 | 22.60614 | 113.56114 | 9721 ft | 248 kts | 92° |
| 2026-04-26 15:41 | 22.60387 | 113.57958 | 9426 ft | 248 kts | 116° |
| 2026-04-26 15:41 | 22.59349 | 113.59390 | 9183 ft | 241 kts | 147° |
| 2026-04-26 15:41 | 22.57822 | 113.60056 | 8935 ft | 237 kts | 175° |
| 2026-04-26 15:42 | 22.56202 | 113.59873 | 8688 ft | 236 kts | 201° |
| 2026-04-26 15:42 | 22.54851 | 113.58901 | 8441 ft | 236 kts | 229° |
| 2026-04-26 15:42 | 22.54055 | 113.57366 | 8201 ft | 236 kts | 254° |
| 2026-04-26 15:42 | 22.53869 | 113.55601 | 7984 ft | 237 kts | 269° |
| 2026-04-26 15:43 | 22.53900 | 113.53818 | 7757 ft | 238 kts | 270° |
| 2026-04-26 15:43 | 22.53949 | 113.52024 | 7513 ft | 239 kts | 270° |
| 2026-04-26 15:43 | 22.54080 | 113.48448 | 7014 ft | 237 kts | 282° |
| 2026-04-26 15:44 | 22.54801 | 113.46871 | 6756 ft | 236 kts | 311° |
| 2026-04-26 15:44 | 22.57716 | 113.45596 | 6282 ft | 236 kts | 6° |
| 2026-04-26 15:44 | 22.59250 | 113.46188 | 6040 ft | 237 kts | 36° |
| 2026-04-26 15:45 | 22.60757 | 113.49222 | 5569 ft | 236 kts | 87° |
| 2026-04-26 15:45 | 22.60770 | 113.50990 | 5366 ft | 235 kts | 92° |
| 2026-04-26 15:46 | 22.60679 | 113.54529 | 4891 ft | 234 kts | 92° |
| 2026-04-26 15:46 | 22.60642 | 113.56285 | 4646 ft | 233 kts | 92° |
| 2026-04-26 15:46 | 22.60311 | 113.57970 | 4341 ft | 230 kts | 121° |
| 2026-04-26 15:46 | 22.60004 | 113.58446 | 4258 ft | 228 kts | 133° |
| 2026-04-26 15:47 | 22.57713 | 113.59381 | 4068 ft | 216 kts | 189° |
| 2026-04-26 15:47 | 22.55666 | 113.57889 | 3988 ft | 226 kts | 242° |
| 2026-04-26 15:47 | 22.55282 | 113.56241 | 3978 ft | 229 kts | 266° |
| 2026-04-26 15:48 | 22.55371 | 113.54517 | 3914 ft | 233 kts | 289° |
| 2026-04-26 15:48 | 22.56310 | 113.53159 | 3966 ft | 227 kts | 328° |
| 2026-04-26 15:48 | 22.57793 | 113.52656 | 3948 ft | 225 kts | 1° |
| 2026-04-26 15:48 | 22.59295 | 113.53051 | 3944 ft | 224 kts | 31° |
| 2026-04-26 15:49 | 22.60442 | 113.54117 | 3982 ft | 212 kts | 45° |
| 2026-04-26 15:49 | 22.61609 | 113.55033 | 3956 ft | 203 kts | 29° |
| 2026-04-26 15:49 | 22.62896 | 113.55666 | 3947 ft | 203 kts | 21° |
| 2026-04-26 15:49 | 22.64228 | 113.56116 | 3957 ft | 200 kts | 15° |
| 2026-04-26 15:50 | 22.65608 | 113.56428 | 3949 ft | 203 kts | 10° |
| 2026-04-26 15:50 | 22.67005 | 113.56624 | 3947 ft | 202 kts | 6° |
| 2026-04-26 15:50 | 22.68403 | 113.56748 | 3946 ft | 201 kts | 4° |
| 2026-04-26 15:50 | 22.69797 | 113.56833 | 3944 ft | 201 kts | 3° |
| 2026-04-26 15:51 | 22.71191 | 113.56899 | 3945 ft | 200 kts | 3° |
| 2026-04-26 15:51 | 22.72583 | 113.56955 | 3951 ft | 200 kts | 2° |
| 2026-04-26 15:51 | 22.73978 | 113.57010 | 3963 ft | 202 kts | 2° |
| 2026-04-26 15:51 | 22.75390 | 113.57058 | 3957 ft | 203 kts | 2° |
| 2026-04-26 15:52 | 22.76800 | 113.57103 | 3967 ft | 203 kts | 2° |
| 2026-04-26 15:52 | 22.78211 | 113.57147 | 3961 ft | 203 kts | 2° |
| 2026-04-26 15:52 | 22.79618 | 113.57190 | 3963 ft | 202 kts | 2° |
| 2026-04-26 15:52 | 22.80565 | 113.57219 | 3956 ft | 202 kts | 2° |
| 2026-04-26 15:53 | 22.82413 | 113.57338 | 3931 ft | 202 kts | 17° |
| 2026-04-26 15:53 | 22.83531 | 113.58179 | 3890 ft | 197 kts | 56° |
| 2026-04-26 15:53 | 22.84215 | 113.59456 | 3958 ft | 198 kts | 63° |
| 2026-04-26 15:53 | 22.84850 | 113.60799 | 3952 ft | 201 kts | 64° |
| 2026-04-26 15:54 | 22.85484 | 113.62144 | 3954 ft | 200 kts | 64° |
| 2026-04-26 15:54 | 22.86116 | 113.63479 | 3949 ft | 199 kts | 64° |
| 2026-04-26 15:54 | 22.86515 | 113.64890 | 3886 ft | 197 kts | 96° |
| 2026-04-26 15:54 | 22.85941 | 113.66172 | 3890 ft | 192 kts | 139° |
| 2026-04-26 15:55 | 22.84898 | 113.67092 | 3958 ft | 197 kts | 141° |
| 2026-04-26 15:55 | 22.83768 | 113.68008 | 3911 ft | 203 kts | 145° |
| 2026-04-26 15:55 | 22.82588 | 113.68884 | 3663 ft | 205 kts | 147° |
| 2026-04-26 15:55 | 22.81386 | 113.69664 | 3412 ft | 197 kts | 150° |
| 2026-04-26 15:56 | 22.80209 | 113.70342 | 3191 ft | 189 kts | 152° |
| 2026-04-26 15:56 | 22.79038 | 113.70992 | 2982 ft | 187 kts | 152° |
| 2026-04-26 15:56 | 22.77908 | 113.71616 | 2706 ft | 177 kts | 152° |
| 2026-04-26 15:56 | 22.76861 | 113.72192 | 2466 ft | 157 kts | 152° |
| 2026-04-26 15:57 | 22.75947 | 113.72696 | 2272 ft | 141 kts | 152° |
| 2026-04-26 15:57 | 22.75089 | 113.73168 | 2115 ft | 139 kts | 152° |
| 2026-04-26 15:57 | 22.74228 | 113.73643 | 1935 ft | 138 kts | 153° |
| 2026-04-26 15:57 | 22.73662 | 113.73955 | 1816 ft | 138 kts | 153° |
| 2026-04-26 15:58 | 22.72530 | 113.74579 | 1584 ft | 136 kts | 153° |
| 2026-04-26 15:58 | 22.71683 | 113.75046 | 1402 ft | 137 kts | 153° |
| 2026-04-26 15:58 | 22.70837 | 113.75513 | 1213 ft | 136 kts | 153° |
| 2026-04-26 15:58 | 22.69990 | 113.75980 | 1046 ft | 136 kts | 153° |
| 2026-04-26 15:59 | 22.69144 | 113.76446 | 853 ft | 137 kts | 153° |
| 2026-04-26 15:59 | 22.68292 | 113.76915 | 689 ft | 138 kts | 152° |
| 2026-04-26 15:59 | 22.67431 | 113.77392 | 479 ft | 140 kts | 152° |
| 2026-04-26 15:59 | 22.66564 | 113.77861 | 238 ft | 137 kts | 153° |
| 2026-04-26 16:00 | 22.65710 | 113.78333 | 99 ft | 139 kts | 151° |
| 2026-04-26 16:00 | 22.64864 | 113.78814 | 13 ft | 129 kts | 153° |
| 2026-04-26 16:00 | 22.64249 | 113.79141 | 8 ft | 68 kts | 153° |
| 2026-04-26 16:00 | 22.64020 | 113.79269 | 11 ft | 9 kts | 149° |
| 2026-04-26 16:01 | 22.63966 | 113.79299 | 12 ft | 9 kts | 145° |
| 2026-04-26 16:01 | 22.63923 | 113.79343 | 13 ft | 8 kts | 134° |
| 2026-04-26 16:01 | 22.63884 | 113.79389 | 13 ft | 8 kts | 131° |
| 2026-04-26 16:01 | 22.63849 | 113.79438 | 13 ft | 8 kts | 126° |
| 2026-04-26 16:02 | 22.63815 | 113.79492 | 11 ft | 9 kts | 122° |
| 2026-04-26 16:02 | 22.63782 | 113.79550 | 10 ft | 9 kts | 122° |
| 2026-04-26 16:02 | 22.63750 | 113.79607 | 11 ft | 9 kts | 120° |
| 2026-04-26 16:02 | 22.63729 | 113.79645 | 10 ft | 9 kts | 126° |
| 2026-04-26 16:03 | 22.63675 | 113.79706 | 10 ft | 9 kts | 107° |
| 2026-04-26 16:03 | 22.63690 | 113.79770 | 9 ft | 9 kts | 60° |
| 2026-04-26 16:03 | 22.63719 | 113.79831 | 8 ft | 9 kts | 63° |
| 2026-04-26 16:03 | 22.63746 | 113.79891 | 9 ft | 9 kts | 63° |
| 2026-04-26 16:04 | 22.63759 | 113.79919 | 9 ft | 0 kts | 63° |
| 2026-04-26 16:15 | 22.63766 | 113.79933 | 37 ft | 5 kts | 63° |
| 2026-04-26 16:15 | 22.63785 | 113.79974 | 10 ft | 7 kts | 63° |
| 2026-04-26 16:15 | 22.63810 | 113.80027 | 9 ft | 8 kts | 63° |
| 2026-04-26 16:16 | 22.63834 | 113.80105 | 10 ft | 1 kts | 124° |
| 2026-04-26 16:16 | 22.63829 | 113.80107 | 10 ft | 1 kts | 153° |
| 2026-04-26 16:16 | 22.63805 | 113.80100 | 10 ft | 6 kts | 201° |
| 2026-04-26 16:16 | 22.63764 | 113.80100 | 10 ft | 6 kts | 155° |
| 2026-04-26 16:17 | 22.63724 | 113.80123 | 11 ft | 7 kts | 153° |
| 2026-04-26 16:17 | 22.63676 | 113.80139 | 11 ft | 8 kts | 190° |
| 2026-04-26 16:17 | 22.63640 | 113.80100 | 11 ft | 8 kts | 237° |
| 2026-04-26 16:17 | 22.63589 | 113.80103 | 11 ft | 9 kts | 147° |
| 2026-04-26 16:18 | 22.63541 | 113.80134 | 12 ft | 0 kts | 150° |